Kostelni Myslova, Czech Republic
Current Conditions -  °F | °C
As of 2:00 AM on Sunday 21 Dec 2014 (Local Time) from LKNA Reporting Station
Rain Showers Rain Showers  
Wind Chill: 29°   Ceiling: 2200
Heat Index: 37°   Visibility: 6mi
Dew Point: 34°   Wind: 14mph
Humidity: 87%   Direction: 290°WNW
Pressure: 30.03"   Gusts: NA
Location:  49.15°N, 15.43°E
Report Text: LKNA 210000Z 29012KT 9999 -SHRA BKN022 BKN039 03/01 Q1017
Loading
Personal Weather Stations






























Interactive Weather Map New forecast layout! Learn more

10-Day Weather Forecast

Advertisements
Track Severe Weather on mobile